Time;durP1;ratioP1;P1;durP2;ratioP2;P2;SDS_P1;SDS_P2;PMS_P1;PMS_P2;Temp;Humidity;BMP_temperature;BMP_pressure;BME280_temperature;BME280_humidity;BME280_pressure;Samples;Min_cycle;Max_cycle;Signal;HPM_P1;HPM_P2
2022/10/02 00:01:40;;;;;;;0.05;0.05;;;11.80;99.90;;;;;;4996864;28;20057;-81
2022/10/02 00:04:12;;;;;;;0.10;0.10;;;11.80;99.90;;;;;;4997281;28;20046;-82
2022/10/02 00:06:45;;;;;;;0.00;0.00;;;11.80;99.90;;;;;;4997254;28;20042;-81
2022/10/02 00:09:21;;;;;;;0.00;0.00;;;11.70;99.90;;;;;;4996923;28;20072;-81
2022/10/02 00:11:50;;;;;;;0.95;0.75;;;11.80;99.90;;;;;;4996913;28;20072;-81
2022/10/02 00:14:18;;;;;;;0.20;0.20;;;11.80;99.90;;;;;;4980504;28;20152;-81
2022/10/02 00:16:48;;;;;;;0.00;0.00;;;11.90;99.90;;;;;;5012969;28;20062;-81
2022/10/02 00:19:18;;;;;;;0.00;0.00;;;11.80;99.90;;;;;;5013006;28;20141;-82
2022/10/02 00:22:02;;;;;;;0.00;0.00;;;11.80;99.90;;;;;;5020178;28;20064;-81
2022/10/02 00:24:46;;;;;;;0.10;0.10;;;11.80;99.90;;;;;;5053459;28;20549;-81
2022/10/02 00:27:37;;;;;;;0.00;0.00;;;11.80;99.90;;;;;;5037258;28;20047;-81
2022/10/02 00:30:04;;;;;;;0.00;0.00;;;11.80;99.90;;;;;;5037052;28;20131;-81
2022/10/02 00:32:42;;;;;;;0.40;0.00;;;11.80;99.90;;;;;;5036873;28;20048;-81
2022/10/02 00:35:41;;;;;;;0.43;0.43;;;11.80;99.90;;;;;;5036734;28;20488;-81
2022/10/02 00:38:24;;;;;;;0.00;0.00;;;11.70;99.90;;;;;;5053821;28;20053;-82
2022/10/02 00:41:19;;;;;;;0.13;0.00;;;11.70;99.90;;;;;;5053592;28;20388;-82
2022/10/02 00:44:07;;;;;;;0.00;0.00;;;11.70;99.90;;;;;;5052847;28;20488;-82
2022/10/02 00:46:42;;;;;;;0.10;0.00;;;11.70;99.90;;;;;;5053509;28;20148;-82
2022/10/02 00:49:45;;;;;;;0.00;0.00;;;11.80;99.90;;;;;;5036833;28;20044;-81
2022/10/02 00:52:37;;;;;;;0.00;0.00;;;11.70;99.90;;;;;;5053630;28;20041;-81
2022/10/02 00:55:41;;;;;;;0.00;0.00;;;11.70;99.90;;;;;;5053809;28;20071;-82
2022/10/02 00:58:24;;;;;;;0.00;0.00;;;11.80;99.90;;;;;;5053588;28;20511;-81
2022/10/02 01:01:15;;;;;;;0.10;0.10;;;11.80;99.90;;;;;;5052459;28;20060;-82
2022/10/02 01:03:43;;;;;;;0.00;0.00;;;11.80;99.90;;;;;;5053355;28;20060;-81
2022/10/02 01:06:10;;;;;;;0.00;0.00;;;11.80;99.90;;;;;;5036657;28;20053;-81
2022/10/02 01:08:36;;;;;;;0.00;0.00;;;11.80;99.90;;;;;;5053077;28;20045;-82
2022/10/02 01:11:03;;;;;;;0.00;0.00;;;11.80;99.90;;;;;;5053061;28;20041;-82
2022/10/02 01:13:30;;;;;;;0.10;0.10;;;11.80;99.90;;;;;;5036555;28;20152;-81
2022/10/02 01:16:00;;;;;;;0.00;0.00;;;11.80;99.90;;;;;;5052927;28;20175;-82
2022/10/02 01:18:28;;;;;;;0.00;0.00;;;11.80;99.90;;;;;;5052871;28;20049;-81
2022/10/02 01:21:10;;;;;;;3.40;0.63;;;11.80;99.90;;;;;;5052810;28;20076;-81
2022/10/02 01:23:51;;;;;;;0.00;0.00;;;11.80;99.90;;;;;;5036643;28;20056;-81
2022/10/02 01:26:17;;;;;;;0.00;0.00;;;11.80;99.90;;;;;;5035893;28;20053;-82
2022/10/02 01:28:43;;;;;;;0.20;0.20;;;11.80;99.90;;;;;;5036244;28;20082;-82
2022/10/02 01:31:11;;;;;;;0.00;0.00;;;11.90;99.90;;;;;;5052293;28;20111;-82
2022/10/02 01:33:40;;;;;;;0.00;0.00;;;11.90;99.90;;;;;;5052868;28;20045;-82
2022/10/02 01:36:07;;;;;;;0.17;0.17;;;12.00;99.90;;;;;;5053008;28;20045;-82
2022/10/02 01:38:33;;;;;;;0.40;0.40;;;11.90;99.90;;;;;;5053010;28;20045;-82
2022/10/02 01:40:59;;;;;;;0.17;0.15;;;12.00;99.90;;;;;;5036054;28;20057;-82
2022/10/02 01:43:31;;;;;;;0.30;0.30;;;12.00;99.90;;;;;;5036041;28;20392;-82
2022/10/02 01:46:37;;;;;;;0.00;0.00;;;12.00;99.90;;;;;;5036226;28;20143;-82
2022/10/02 01:49:35;;;;;;;1.52;0.47;;;12.00;99.90;;;;;;5035782;28;20136;-81
2022/10/02 01:52:38;;;;;;;1.38;0.10;;;12.00;99.90;;;;;;4995394;28;20061;-82
2022/10/02 01:55:18;;;;;;;0.30;0.30;;;12.10;99.90;;;;;;4979526;28;20541;-82
2022/10/02 01:58:05;;;;;;;0.15;0.10;;;12.10;99.90;;;;;;4995667;28;20046;-82
2022/10/02 02:00:48;;;;;;;0.00;0.00;;;12.10;99.90;;;;;;5012028;28;20041;-82
2022/10/02 02:03:18;;;;;;;0.00;0.00;;;12.00;99.90;;;;;;4979910;28;20072;-82
2022/10/02 02:05:54;;;;;;;0.00;0.00;;;12.00;99.90;;;;;;4979644;28;20061;-82
2022/10/02 02:08:32;;;;;;;0.00;0.00;;;12.00;99.90;;;;;;4979036;28;20403;-82
2022/10/02 02:11:14;;;;;;;0.10;0.10;;;12.00;99.90;;;;;;4980114;28;20058;-82
2022/10/02 02:14:04;;;;;;;0.10;0.10;;;12.00;99.90;;;;;;4981812;28;20050;-81
2022/10/02 02:16:43;;;;;;;0.00;0.00;;;12.00;99.90;;;;;;4983001;28;20054;-81
2022/10/02 02:19:22;;;;;;;0.00;0.00;;;12.00;99.90;;;;;;4998601;28;20061;-82
2022/10/02 02:21:52;;;;;;;0.00;0.00;;;12.00;99.90;;;;;;4982765;28;20094;-81
2022/10/02 02:24:34;;;;;;;0.00;0.00;;;12.00;99.90;;;;;;4998658;28;20049;-82
2022/10/02 02:27:03;;;;;;;0.17;0.17;;;12.00;99.90;;;;;;4982593;28;20586;-82
2022/10/02 02:29:35;;;;;;;0.00;0.00;;;11.90;99.90;;;;;;5028046;28;20068;-82
2022/10/02 02:32:05;;;;;;;0.00;0.00;;;11.90;99.90;;;;;;5055977;28;20052;-82
2022/10/02 02:34:36;;;;;;;0.00;0.00;;;11.90;99.90;;;;;;5055840;28;20049;-81
2022/10/02 02:37:08;;;;;;;0.00;0.00;;;11.90;99.90;;;;;;5055553;28;20079;-81
2022/10/02 02:39:50;;;;;;;0.00;0.00;;;11.90;99.90;;;;;;5055543;28;20105;-82
2022/10/02 02:42:20;;;;;;;0.17;0.10;;;11.90;99.90;;;;;;5038910;28;20053;-81
2022/10/02 02:44:51;;;;;;;0.13;0.13;;;11.90;99.90;;;;;;5039171;28;20045;-82
2022/10/02 02:47:26;;;;;;;0.00;0.00;;;11.90;99.90;;;;;;5055244;28;20052;-81
2022/10/02 02:50:00;;;;;;;;;;;11.80;99.90;;;;;;5055605;28;20049;-81
2022/10/02 02:52:36;;;;;;;0.00;0.00;;;11.80;99.90;;;;;;5055401;28;19921;-82
2022/10/02 02:55:08;;;;;;;0.38;0.38;;;11.80;99.90;;;;;;5038859;28;20461;-81
2022/10/02 02:57:42;;;;;;;0.00;0.00;;;11.80;99.90;;;;;;5038913;28;20041;-81
2022/10/02 03:00:08;;;;;;;0.00;0.00;;;11.80;99.90;;;;;;5055302;28;20091;-82
2022/10/02 03:02:34;;;;;;;0.00;0.00;;;11.70;99.90;;;;;;5039145;28;20060;-81
2022/10/02 03:04:59;;;;;;;0.00;0.00;;;11.70;99.90;;;;;;5038220;28;20053;-82
2022/10/02 03:07:25;;;;;;;0.00;0.00;;;11.70;99.90;;;;;;5054797;28;20051;-81
2022/10/02 03:10:13;;;;;;;0.30;0.30;;;11.70;99.90;;;;;;5055223;28;20067;-82
2022/10/02 03:13:30;;;;;;;0.00;0.00;;;11.70;99.90;;;;;;5039068;28;20115;-82
2022/10/02 03:16:18;;;;;;;0.00;0.00;;;11.60;99.90;;;;;;4997770;28;20060;-82
2022/10/02 03:19:21;;;;;;;0.00;0.00;;;11.60;99.90;;;;;;4998360;28;20050;-81
2022/10/02 03:21:53;;;;;;;0.00;0.00;;;11.60;99.90;;;;;;4978732;28;20419;-81
2022/10/02 03:24:18;;;;;;;0.00;0.00;;;11.60;99.90;;;;;;4993917;28;20066;-82
2022/10/02 03:27:03;;;;;;;0.00;0.00;;;11.60;99.90;;;;;;4978430;28;20591;-81
2022/10/02 03:29:37;;;;;;;0.00;0.00;;;11.60;99.90;;;;;;4961818;28;20499;-82
2022/10/02 03:32:06;;;;;;;0.00;0.00;;;11.60;99.90;;;;;;4978001;28;20054;-82
2022/10/02 03:34:32;;;;;;;0.00;0.00;;;11.60;99.90;;;;;;4977945;28;20189;-81
2022/10/02 03:36:59;;;;;;;0.00;0.00;;;11.60;99.90;;;;;;4978223;28;20062;-81
2022/10/02 03:39:25;;;;;;;0.80;0.65;;;11.50;99.90;;;;;;4977208;28;20054;-82
2022/10/02 03:41:51;;;;;;;0.00;0.00;;;11.50;99.90;;;;;;4991387;28;20057;-82
2022/10/02 03:44:16;;;;;;;0.00;0.00;;;11.50;99.90;;;;;;4991977;28;20050;-82
2022/10/02 03:46:42;;;;;;;1.45;0.10;;;11.50;99.90;;;;;;4977508;28;20050;-81
2022/10/02 03:49:07;;;;;;;0.00;0.00;;;11.50;99.90;;;;;;4981439;28;20049;-81
2022/10/02 03:51:33;;;;;;;0.00;0.00;;;11.50;99.90;;;;;;4997008;28;20465;-82
2022/10/02 03:53:59;;;;;;;0.00;0.00;;;11.40;99.90;;;;;;4997323;28;20548;-81
2022/10/02 03:56:37;;;;;;;0.00;0.00;;;11.40;99.90;;;;;;4980965;28;20049;-82
2022/10/02 03:59:17;;;;;;;0.05;0.05;;;11.40;99.90;;;;;;5031188;28;20408;-81
2022/10/02 04:01:49;;;;;;;0.00;0.00;;;11.40;99.90;;;;;;5054569;28;20127;-81
2022/10/02 04:04:20;;;;;;;0.00;0.00;;;11.40;99.90;;;;;;5037467;28;20052;-82
2022/10/02 04:07:01;;;;;;;0.08;0.03;;;11.40;99.90;;;;;;5036956;28;20132;-81
2022/10/02 04:09:34;;;;;;;0.03;0.00;;;11.50;99.90;;;;;;5037371;28;20087;-81
2022/10/02 04:12:18;;;;;;;0.00;0.00;;;11.40;99.90;;;;;;5037280;28;20049;-81
2022/10/02 04:15:01;;;;;;;0.00;0.00;;;11.40;99.90;;;;;;5037181;28;20135;-82
2022/10/02 04:17:42;;;;;;;0.00;0.00;;;11.40;99.90;;;;;;5037060;28;20053;-82
2022/10/02 04:20:23;;;;;;;0.00;0.00;;;11.40;99.90;;;;;;5036914;28;20118;-81
2022/10/02 04:23:01;;;;;;;0.00;0.00;;;11.40;99.90;;;;;;5037851;28;20471;-82
2022/10/02 04:25:37;;;;;;;0.00;0.00;;;11.40;99.90;;;;;;5037231;28;20053;-81
2022/10/02 04:28:28;;;;;;;0.00;0.00;;;11.40;99.90;;;;;;5036678;28;20045;-82
2022/10/02 04:30:54;;;;;;;0.00;0.00;;;11.40;99.90;;;;;;5037012;28;20084;-82
2022/10/02 04:33:23;;;;;;;0.00;0.00;;;11.30;99.90;;;;;;5053563;28;20364;-82
2022/10/02 04:35:56;;;;;;;0.00;0.00;;;11.30;99.90;;;;;;5036275;28;20389;-81
2022/10/02 04:38:51;;;;;;;0.00;0.00;;;11.30;99.90;;;;;;5053520;28;20493;-81
2022/10/02 04:41:50;;;;;;;0.00;0.00;;;11.30;99.90;;;;;;4996732;28;20054;-81
2022/10/02 04:44:40;;;;;;;0.65;0.32;;;11.30;99.90;;;;;;4980165;28;20296;-81
2022/10/02 04:47:36;;;;;;;0.10;0.10;;;11.20;99.90;;;;;;5013130;28;20227;-81
2022/10/02 04:50:16;;;;;;;0.00;0.00;;;11.30;99.90;;;;;;4995999;28;20042;-81
2022/10/02 04:52:53;;;;;;;0.00;0.00;;;11.20;99.90;;;;;;4996185;28;20058;-81
2022/10/02 04:55:39;;;;;;;0.22;0.22;;;11.30;99.90;;;;;;4980315;28;20057;-82
2022/10/02 04:58:23;;;;;;;0.00;0.00;;;11.30;99.90;;;;;;4996065;28;20062;-81
2022/10/02 05:01:00;;;;;;;0.38;0.38;;;11.20;99.90;;;;;;4996080;28;20041;-82
2022/10/02 05:03:50;;;;;;;0.10;0.00;;;11.20;99.90;;;;;;4980064;28;20058;-81
2022/10/02 05:06:46;;;;;;;0.00;0.00;;;11.30;99.90;;;;;;4995999;28;20076;-82
2022/10/02 05:09:38;;;;;;;0.00;0.00;;;11.30;99.90;;;;;;4980057;28;20094;-81
2022/10/02 05:12:16;;;;;;;0.00;0.00;;;11.20;99.90;;;;;;4979711;28;20636;-81
2022/10/02 05:15:07;;;;;;;0.70;0.30;;;11.20;99.90;;;;;;4996067;28;20053;-81
2022/10/02 05:17:52;;;;;;;0.08;0.08;;;11.20;99.90;;;;;;4970826;28;20473;-81
2022/10/02 05:20:26;;;;;;;;;;;11.30;99.90;;;;;;4977343;28;20121;-81
2022/10/02 05:23:15;;;;;;;0.00;0.00;;;11.20;99.90;;;;;;4976331;28;20400;-82
2022/10/02 05:26:03;;;;;;;0.00;0.00;;;11.10;99.90;;;;;;4980057;28;20107;-81
2022/10/02 05:28:36;;;;;;;0.00;0.00;;;11.20;99.90;;;;;;4995378;28;20053;-81
2022/10/02 05:31:11;;;;;;;0.00;0.00;;;11.20;99.90;;;;;;4996212;28;20064;-81
2022/10/02 05:34:02;;;;;;;6.97;0.88;;;11.20;99.90;;;;;;4996447;28;20057;-81
2022/10/02 05:36:58;;;;;;;0.00;0.00;;;11.10;99.90;;;;;;4979737;28;20145;-82
2022/10/02 05:39:30;;;;;;;0.00;0.00;;;11.10;99.90;;;;;;4995620;28;20609;-82
2022/10/02 05:41:58;;;;;;;0.20;0.10;;;11.20;99.90;;;;;;4995300;28;20502;-82
2022/10/02 05:44:38;;;;;;;0.00;0.00;;;11.20;99.90;;;;;;4995602;28;20124;-82
2022/10/02 05:47:27;;;;;;;0.30;0.30;;;11.20;99.90;;;;;;4997444;28;20130;-82
2022/10/02 05:50:25;;;;;;;0.00;0.00;;;11.20;99.90;;;;;;5000013;28;20054;-82
2022/10/02 05:53:23;;;;;;;0.00;0.00;;;11.30;99.90;;;;;;4999300;28;20054;-82
2022/10/02 05:55:53;;;;;;;0.00;0.00;;;11.30;99.90;;;;;;5038077;28;20106;-81
2022/10/02 05:58:35;;;;;;;0.00;0.00;;;11.20;99.90;;;;;;5039083;28;20140;-81
2022/10/02 06:01:05;;;;;;;0.10;0.10;;;11.30;99.90;;;;;;5022733;28;20049;-81
2022/10/02 06:03:35;;;;;;;0.00;0.00;;;11.30;99.90;;;;;;5053387;28;20057;-81
2022/10/02 06:06:07;;;;;;;0.00;0.00;;;11.30;99.90;;;;;;5040102;28;20051;-81
2022/10/02 06:08:41;;;;;;;0.20;0.05;;;11.30;99.90;;;;;;5039675;28;20047;-81
2022/10/02 06:11:20;;;;;;;0.00;0.00;;;11.30;99.90;;;;;;5039617;28;20378;-82
2022/10/02 06:13:58;;;;;;;0.00;0.00;;;11.40;99.90;;;;;;5056657;28;20094;-82
2022/10/02 06:16:30;;;;;;;0.00;0.00;;;11.40;99.90;;;;;;5039644;28;20053;-82
2022/10/02 06:19:03;;;;;;;0.00;0.00;;;11.40;99.90;;;;;;5056326;28;20055;-82
2022/10/02 06:21:42;;;;;;;0.20;0.20;;;11.40;99.90;;;;;;5056708;28;20052;-82
2022/10/02 06:24:23;;;;;;;0.10;0.10;;;11.50;99.90;;;;;;5039367;28;20047;-82
2022/10/02 06:27:13;;;;;;;0.00;0.00;;;11.50;99.90;;;;;;5038941;28;20473;-82
2022/10/02 06:29:46;;;;;;;0.30;0.22;;;11.50;99.90;;;;;;5038685;28;20065;-82
2022/10/02 06:32:26;;;;;;;0.00;0.00;;;11.50;99.90;;;;;;5039754;28;20052;-82
2022/10/02 06:34:52;;;;;;;0.00;0.00;;;11.50;99.90;;;;;;5039271;28;20499;-82
2022/10/02 06:37:29;;;;;;;0.00;0.00;;;11.60;99.90;;;;;;5039195;28;20491;-81
2022/10/02 06:39:57;;;;;;;0.10;0.10;;;11.60;99.90;;;;;;5055851;28;20053;-82
2022/10/02 06:42:36;;;;;;;0.30;0.30;;;11.60;99.90;;;;;;5055376;28;20489;-82
2022/10/02 06:45:31;;;;;;;0.08;0.08;;;11.60;99.90;;;;;;5038987;28;20484;-81
2022/10/02 06:48:14;;;;;;;0.00;0.00;;;11.70;99.90;;;;;;5055884;28;20044;-82
2022/10/02 06:51:03;;;;;;;0.00;0.00;;;11.80;99.90;;;;;;5038799;28;20079;-82
2022/10/02 06:54:07;;;;;;;0.50;0.38;;;11.90;99.90;;;;;;5038727;28;20059;-82
2022/10/02 06:56:51;;;;;;;1.55;1.10;;;12.00;99.90;;;;;;5038736;28;20056;-82
2022/10/02 06:59:41;;;;;;;1.65;0.80;;;12.00;99.90;;;;;;5054355;28;20052;-82
2022/10/02 07:02:25;;;;;;;0.00;0.00;;;12.10;99.90;;;;;;5055376;28;20083;-82
2022/10/02 07:05:20;;;;;;;0.00;0.00;;;12.20;99.90;;;;;;5055587;28;20099;-82
2022/10/02 07:08:07;;;;;;;0.00;0.00;;;12.50;99.90;;;;;;5038277;28;20036;-82
2022/10/02 07:10:44;;;;;;;0.00;0.00;;;12.60;99.90;;;;;;5055217;28;20047;-82
2022/10/02 07:13:34;;;;;;;0.90;0.32;;;12.70;99.90;;;;;;5055777;28;20053;-82
2022/10/02 07:16:10;;;;;;;0.00;0.00;;;12.80;99.90;;;;;;5038639;28;20123;-82
2022/10/02 07:19:00;;;;;;;1.45;0.20;;;12.80;99.90;;;;;;5038780;28;20053;-82
2022/10/02 07:21:38;;;;;;;0.90;0.30;;;12.90;99.90;;;;;;5038447;28;20063;-82
2022/10/02 07:24:24;;;;;;;0.43;0.28;;;12.90;99.90;;;;;;5054804;28;20087;-82
2022/10/02 07:27:01;;;;;;;0.00;0.00;;;13.00;99.90;;;;;;5055056;28;20131;-82
2022/10/02 07:29:41;;;;;;;1.55;0.47;;;13.00;99.90;;;;;;5038245;28;20139;-82
2022/10/02 07:32:30;;;;;;;0.00;0.00;;;13.10;99.90;;;;;;5051797;28;20091;-83
2022/10/02 07:35:27;;;;;;;0.30;0.30;;;13.20;99.90;;;;;;4995459;28;20603;-83
2022/10/02 07:38:41;;;;;;;0.00;0.00;;;13.20;99.90;;;;;;4995744;28;20053;-83
2022/10/02 07:41:31;;;;;;;0.03;0.03;;;13.30;99.90;;;;;;4995444;28;20691;-83
2022/10/02 07:44:24;;;;;;;0.00;0.00;;;13.30;99.90;;;;;;5011375;28;20168;-84
2022/10/02 07:47:07;;;;;;;0.00;0.00;;;13.40;99.90;;;;;;4979237;28;20061;-83
2022/10/02 07:49:55;;;;;;;0.08;0.08;;;13.40;99.90;;;;;;4995489;28;20093;-83
2022/10/02 07:52:29;;;;;;;0.22;0.13;;;13.60;99.90;;;;;;4994822;28;20064;-83
2022/10/02 07:55:18;;;;;;;0.00;0.00;;;13.70;99.90;;;;;;4979642;28;20050;-85
2022/10/02 07:57:52;;;;;;;0.00;0.00;;;13.90;99.90;;;;;;4995358;28;20293;-84
2022/10/02 08:00:22;;;;;;;0.45;0.45;;;14.10;99.90;;;;;;4995188;28;20149;-84
2022/10/02 08:02:57;;;;;;;0.60;0.20;;;14.10;99.90;;;;;;4994744;28;20053;-85
2022/10/02 08:05:31;;;;;;;0.15;0.15;;;14.20;99.90;;;;;;4978855;28;20064;-82
2022/10/02 08:08:26;;;;;;;1.55;0.43;;;14.30;99.90;;;;;;4993983;28;20054;-84
2022/10/02 08:11:14;;;;;;;2.70;0.13;;;14.40;99.90;;;;;;4993486;28;20414;-84
2022/10/02 08:13:46;;;;;;;0.00;0.00;;;14.40;99.90;;;;;;5035432;28;20088;-83
2022/10/02 08:16:13;;;;;;;0.00;0.00;;;14.40;99.90;;;;;;5051381;28;20127;-84
2022/10/02 08:18:48;;;;;;;0.00;0.00;;;14.40;99.90;;;;;;5051871;28;20049;-83
2022/10/02 08:21:20;;;;;;;0.98;0.80;;;14.50;99.90;;;;;;5051690;28;20507;-82
2022/10/02 08:24:05;;;;;;;0.00;0.00;;;14.50;99.90;;;;;;5035273;28;20047;-83
2022/10/02 08:26:52;;;;;;;4.68;0.60;;;14.50;99.90;;;;;;5035083;28;20439;-83
2022/10/02 08:29:17;;;;;;;0.00;0.00;;;14.50;99.90;;;;;;5035579;28;20447;-83
2022/10/02 08:31:43;;;;;;;0.10;0.05;;;14.50;99.90;;;;;;5050692;28;20128;-83
2022/10/02 08:34:18;;;;;;;0.38;0.35;;;14.60;99.90;;;;;;5051413;28;20061;-83
2022/10/02 08:36:53;;;;;;;0.73;0.50;;;14.80;99.90;;;;;;5035574;28;20143;-83
2022/10/02 08:39:37;;;;;;;0.10;0.10;;;15.00;99.90;;;;;;5051512;28;20049;-85
2022/10/02 08:42:24;;;;;;;7.47;1.20;;;15.20;99.90;;;;;;5050536;28;20095;-82
2022/10/02 08:45:27;;;;;;;1.15;0.80;;;15.40;99.90;;;;;;5051630;28;20045;-84
2022/10/02 08:48:14;;;;;;;5.22;0.20;;;15.50;99.90;;;;;;5035323;28;20056;-82
2022/10/02 08:50:58;;;;;;;0.00;0.00;;;15.80;99.90;;;;;;5034786;28;20223;-82
2022/10/02 08:53:45;;;;;;;0.00;0.00;;;15.90;99.90;;;;;;5053216;28;20041;-82
2022/10/02 08:56:22;;;;;;;0.00;0.00;;;16.00;99.90;;;;;;5053314;28;20052;-83
2022/10/02 08:59:19;;;;;;;0.15;0.15;;;16.10;99.90;;;;;;5036660;28;20049;-82
2022/10/02 09:02:12;;;;;;;0.10;0.10;;;16.30;99.90;;;;;;5036910;28;20087;-82
2022/10/02 09:04:59;;;;;;;0.00;0.00;;;16.50;99.90;;;;;;5053172;28;20045;-82
2022/10/02 09:07:40;;;;;;;4.68;1.10;;;16.50;99.90;;;;;;5052629;28;20083;-82
2022/10/02 09:10:30;;;;;;;0.00;0.00;;;16.60;99.90;;;;;;5053544;28;20099;-81
2022/10/02 09:13:10;;;;;;;0.35;0.35;;;16.60;99.90;;;;;;5053312;28;20100;-82
2022/10/02 09:15:46;;;;;;;1.85;0.52;;;16.60;99.90;;;;;;5052473;28;20053;-82
2022/10/02 09:18:41;;;;;;;0.00;0.00;;;16.70;99.90;;;;;;5036457;28;20041;-82
2022/10/02 09:21:35;;;;;;;0.00;0.00;;;16.90;99.90;;;;;;5053228;28;20045;-81
2022/10/02 09:24:35;;;;;;;0.00;0.00;;;17.10;99.90;;;;;;5056544;28;20409;-82
2022/10/02 09:27:07;;;;;;;4.90;0.95;;;17.20;99.90;;;;;;5056904;28;20048;-82
2022/10/02 09:29:41;;;;;;;0.00;0.00;;;17.20;99.90;;;;;;5040332;28;20064;-81
2022/10/02 09:32:33;;;;;;;0.93;0.10;;;17.20;99.90;;;;;;5056936;28;20501;-82
2022/10/02 09:35:22;;;;;;;2.72;1.10;;;17.20;99.90;;;;;;5056781;28;20088;-82
2022/10/02 09:38:04;;;;;;;0.00;0.00;;;17.00;99.90;;;;;;5040680;28;20045;-82
2022/10/02 09:40:36;;;;;;;0.00;0.00;;;17.20;99.90;;;;;;5057053;28;20049;-82
2022/10/02 09:43:33;;;;;;;0.00;0.00;;;17.40;99.90;;;;;;5039830;28;20139;-82
2022/10/02 09:46:43;;;;;;;0.00;0.00;;;17.40;99.90;;;;;;5037334;28;20057;-83
2022/10/02 09:49:24;;;;;;;0.00;0.00;;;17.50;99.90;;;;;;5018921;28;20049;-83
2022/10/02 09:51:49;;;;;;;0.00;0.00;;;17.60;99.90;;;;;;5063683;28;20044;-82
2022/10/02 09:54:37;;;;;;;0.43;0.43;;;17.70;99.90;;;;;;5076006;28;20048;-81
2022/10/02 09:57:30;;;;;;;0.38;0.38;;;18.00;99.90;;;;;;5060152;28;20484;-81
2022/10/02 10:00:26;;;;;;;0.10;0.05;;;18.10;99.90;;;;;;5060554;28;20052;-81
2022/10/02 10:03:23;;;;;;;0.00;0.00;;;18.00;99.90;;;;;;5076431;28;20391;-81
2022/10/02 10:06:09;;;;;;;0.00;0.00;;;17.80;99.90;;;;;;5076299;28;20055;-81
2022/10/02 10:09:25;;;;;;;9.23;0.40;;;17.50;99.90;;;;;;5059605;28;20404;-81
2022/10/02 10:12:27;;;;;;;0.00;0.00;;;17.10;99.90;;;;;;5038888;28;20484;-81
2022/10/02 10:15:23;;;;;;;0.00;0.00;;;16.90;99.90;;;;;;5038792;28;20440;-81
2022/10/02 10:18:10;;;;;;;0.00;0.00;;;17.10;99.90;;;;;;5022311;28;20135;-81
2022/10/02 10:21:09;;;;;;;0.10;0.10;;;17.30;99.90;;;;;;5022489;28;20053;-81
2022/10/02 10:24:08;;;;;;;0.00;0.00;;;17.40;99.90;;;;;;5037401;28;20543;-81
2022/10/02 10:27:15;;;;;;;1.85;0.90;;;17.50;99.90;;;;;;5038370;28;20049;-81
2022/10/02 10:29:45;;;;;;;0.32;0.25;;;17.70;99.90;;;;;;4956746;29;20063;-81
2022/10/02 10:32:23;;;;;;;0.00;0.00;;;17.90;99.90;;;;;;4956812;29;20059;-81
2022/10/02 10:34:54;;;;;;;0.20;0.20;;;18.10;99.90;;;;;;4940300;29;20066;-81
2022/10/02 10:40:52;;;;;;;0.00;0.00;;;18.70;99.90;;;;;;4940722;29;20080;-81
2022/10/02 10:43:56;;;;;;;0.47;0.10;;;18.90;99.90;;;;;;4939654;29;20059;-81
2022/10/02 10:46:40;;;;;;;0.00;0.00;;;19.00;99.90;;;;;;4967940;28;20379;-81
2022/10/02 10:49:09;;;;;;;1.45;0.10;;;19.00;99.90;;;;;;4979165;28;20042;-81
2022/10/02 10:51:40;;;;;;;0.00;0.00;;;18.80;99.90;;;;;;4979055;28;20121;-81
2022/10/02 10:54:24;;;;;;;1.17;0.40;;;18.50;99.90;;;;;;4962448;28;20520;-81
2022/10/02 10:56:58;;;;;;;0.83;0.30;;;18.60;99.90;;;;;;4979112;28;20174;-81
2022/10/02 10:59:55;;;;;;;0.00;0.00;;;18.60;99.90;;;;;;4978999;28;20474;-81
2022/10/02 11:02:42;;;;;;;0.28;0.10;;;18.50;99.90;;;;;;4940400;29;20062;-81
2022/10/02 11:05:14;;;;;;;0.63;0.35;;;18.50;99.90;;;;;;4940347;29;20575;-81
2022/10/02 11:08:13;;;;;;;0.15;0.15;;;18.70;99.90;;;;;;4994014;28;20050;-87
2022/10/02 11:11:00;;;;;;;0.00;0.00;;;18.70;99.90;;;;;;5017661;28;20041;-83
2022/10/02 11:13:53;;;;;;;0.10;0.10;;;18.80;99.90;;;;;;5017981;28;20061;-82
2022/10/02 11:16:53;;;;;;;0.20;0.10;;;18.90;99.90;;;;;;5001547;28;20141;-83
2022/10/02 11:19:27;;;;;;;0.00;0.00;;;19.00;99.90;;;;;;5015018;28;20060;-82
2022/10/02 11:22:13;;;;;;;0.98;0.43;;;19.10;99.90;;;;;;5017757;28;20145;-83
2022/10/02 11:25:11;;;;;;;0.00;0.00;;;19.10;99.90;;;;;;5017127;28;20049;-83
2022/10/02 11:27:57;;;;;;;0.45;0.45;;;19.20;99.90;;;;;;5017718;28;20057;-83
2022/10/02 11:31:01;;;;;;;0.38;0.13;;;19.30;99.90;;;;;;5017691;28;20095;-83
2022/10/02 11:33:47;;;;;;;0.35;0.20;;;19.30;99.90;;;;;;4955885;28;20059;-83
2022/10/02 11:37:09;;;;;;;0.00;0.00;;;19.40;99.90;;;;;;4938892;29;20065;-82
2022/10/02 11:39:55;;;;;;;0.00;0.00;;;19.40;99.90;;;;;;4912558;29;20058;-83
2022/10/02 11:42:36;;;;;;;0.57;0.57;;;19.60;99.90;;;;;;4936097;29;20055;-82
2022/10/02 11:45:16;;;;;;;0.00;0.00;;;19.80;99.90;;;;;;4936299;29;20179;-83
2022/10/02 11:48:07;;;;;;;0.52;0.10;;;19.80;99.90;;;;;;4936120;29;20554;-83
2022/10/02 11:51:09;;;;;;;1.05;0.10;;;19.90;99.90;;;;;;4936147;29;20059;-83
2022/10/02 11:53:35;;;;;;;0.22;0.22;;;19.80;99.90;;;;;;4942369;28;20105;-83
2022/10/02 11:56:21;;;;;;;0.10;0.10;;;19.40;99.90;;;;;;4941990;28;20054;-83
2022/10/02 11:59:01;;;;;;;0.00;0.00;;;19.00;99.90;;;;;;4969559;28;20054;-82
2022/10/02 12:01:54;;;;;;;0.10;0.00;;;18.60;99.90;;;;;;4958544;28;20046;-83
2022/10/02 12:05:03;;;;;;;0.00;0.00;;;18.30;99.90;;;;;;4958794;28;20053;-82
2022/10/02 12:07:41;;;;;;;0.10;0.10;;;18.10;99.90;;;;;;4885730;29;20481;-83
2022/10/02 12:10:32;;;;;;;0.00;0.00;;;17.90;99.90;;;;;;4951443;28;20054;-83
2022/10/02 12:13:03;;;;;;;0.00;0.00;;;17.90;99.90;;;;;;4961580;28;20144;-83
2022/10/02 12:15:43;;;;;;;0.10;0.10;;;17.70;99.90;;;;;;4977533;28;20072;-83
2022/10/02 12:18:37;;;;;;;0.00;0.00;;;17.70;99.90;;;;;;4977974;28;20060;-83
2022/10/02 12:27:42;;;;;;;0.00;0.00;;;17.90;99.90;;;;;;4916572;29;20056;-83
2022/10/02 12:30:16;;;;;;;0.00;0.00;;;18.50;99.90;;;;;;4916379;29;20062;-83
2022/10/02 12:33:12;;;;;;;0.25;0.08;;;19.00;99.90;;;;;;4923536;29;20058;-83
2022/10/02 12:35:38;;;;;;;0.10;0.10;;;19.30;99.90;;;;;;4938973;28;20518;-83
2022/10/02 12:38:15;;;;;;;0.00;0.00;;;19.50;99.90;;;;;;4938655;29;20087;-82
2022/10/02 12:41:17;;;;;;;5.82;0.43;;;19.60;99.90;;;;;;4938842;29;20051;-82
2022/10/02 12:44:22;;;;;;;0.00;0.00;;;19.80;99.90;;;;;;4969222;28;20058;-83
2022/10/02 12:47:09;;;;;;;0.00;0.00;;;19.80;99.90;;;;;;4977227;28;20057;-83
2022/10/02 12:49:59;;;;;;;0.00;0.00;;;19.80;99.10;;;;;;4977244;28;20137;-83
2022/10/02 12:53:03;;;;;;;0.00;0.00;;;19.80;99.90;;;;;;4976487;28;20446;-83
2022/10/02 12:55:58;;;;;;;0.00;0.00;;;19.90;97.20;;;;;;4919041;29;20130;-83
2022/10/02 12:58:47;;;;;;;0.00;0.00;;;19.80;95.20;;;;;;4919401;29;20062;-83
2022/10/02 13:01:15;;;;;;;0.00;0.00;;;19.70;93.60;;;;;;4920044;29;20531;-83
2022/10/02 13:03:49;;;;;;;0.00;0.00;;;19.50;94.50;;;;;;4949053;28;20081;-82
2022/10/02 13:06:46;;;;;;;0.00;0.00;;;19.10;96.70;;;;;;5012752;28;20104;-83
2022/10/02 13:10:13;;;;;;;0.38;0.30;;;18.90;96.70;;;;;;5013466;28;20093;-80
2022/10/02 13:12:49;;;;;;;;;;;18.80;98.20;;;;;;4954613;29;20051;-81
2022/10/02 13:15:36;;;;;;;0.00;0.00;;;19.00;98.70;;;;;;4922129;28;19980;-82
2022/10/02 13:18:27;;;;;;;0.00;0.00;;;19.00;97.50;;;;;;4922358;29;20082;-81
2022/10/02 13:21:14;;;;;;;0.10;0.10;;;18.80;97.10;;;;;;4922484;29;20142;-81
2022/10/02 13:24:01;;;;;;;0.00;0.00;;;18.70;96.80;;;;;;4922516;28;20054;-81
2022/10/02 13:26:41;;;;;;;0.00;0.00;;;18.70;98.20;;;;;;4938023;29;20062;-81
2022/10/02 13:29:12;;;;;;;0.00;0.00;;;18.50;98.20;;;;;;4938520;29;20043;-81
2022/10/02 13:32:08;;;;;;;0.00;0.00;;;18.40;99.20;;;;;;4945535;28;20468;-81
2022/10/02 13:34:36;;;;;;;0.00;0.00;;;18.40;99.90;;;;;;5012465;28;20564;-82
2022/10/02 13:37:30;;;;;;;0.00;0.00;;;18.30;99.90;;;;;;4979565;28;20052;-80
2022/10/02 13:40:02;;;;;;;0.00;0.00;;;18.00;99.90;;;;;;4995752;28;20528;-80
2022/10/02 13:42:35;;;;;;;0.00;0.00;;;17.80;99.90;;;;;;5012483;28;20058;-81
2022/10/02 13:45:23;;;;;;;0.00;0.00;;;17.70;99.90;;;;;;5011966;28;20049;-81
2022/10/02 13:48:04;;;;;;;0.00;0.00;;;17.60;99.90;;;;;;5055113;28;20048;-81
2022/10/02 13:51:03;;;;;;;0.00;0.00;;;17.40;99.90;;;;;;5055987;28;20143;-81
2022/10/02 13:53:50;;;;;;;0.00;0.00;;;17.40;99.90;;;;;;5073309;28;20045;-81
2022/10/02 13:56:42;;;;;;;0.25;0.25;;;17.60;99.90;;;;;;5055715;28;20053;-82
2022/10/02 13:59:34;;;;;;;0.00;0.00;;;17.60;99.90;;;;;;5056533;28;20414;-82
2022/10/02 14:02:21;;;;;;;2.10;0.35;;;17.60;99.90;;;;;;5056398;28;20040;-81
2022/10/02 14:05:14;;;;;;;0.00;0.00;;;17.60;99.90;;;;;;5073427;28;20123;-82
2022/10/02 14:08:05;;;;;;;0.00;0.00;;;17.70;99.90;;;;;;5057210;28;20083;-81
2022/10/02 14:10:51;;;;;;;0.93;0.55;;;17.80;99.90;;;;;;5076724;28;20102;-82
2022/10/02 14:13:45;;;;;;;0.00;0.00;;;17.90;99.90;;;;;;5076069;28;20052;-81
2022/10/02 14:16:38;;;;;;;0.08;0.00;;;17.90;99.90;;;;;;5060163;28;20145;-81